Terminal Aerodrome Forecast
Issued by NWS Wilmington, OH

Current Version | Previous Version | Text Only | Print | Product List | Glossary Off
Versions: 1 2 3 4 5 6 7 8 9 10 11 12 13 14 15 16 17 18 19 20 21 22 23 24 25 26

000
FTUS41 KILN 220500
TAFILN
TAF
KILN 220537Z 2206/2306 VRB03KT 5SM BR FEW060
     FM220800 00000KT 2SM BR SCT060
     FM221300 21006KT P6SM SCT040
     FM230000 23005KT P6SM SCT250=

USA.gov is the U.S. government's official web portal to all federal, state and local government web resources and services.